Amunt
Inicio > meteoXarxa
Fes-te'n soci

METEOXARXA

Portell de Morella
Ubicació
Comarca els Ports
Altitud (msnm) 1074
Posició geogràfica 40° 31' 57.00" N, 00° 15' 45.00" W
Model Davis Vantage Pro 2 Calefactada
Presa de dades
Font de les dades AVAMET Portell (+dades online)
Estadístiques. Resum
Data Temperatura (ºC) Humitat (%) Pressió (hPa) Vent (km/h) Precipit. (mm)
Mínima Mitjana Màxima Mínima Mitjana Màxima Mínima Mitjana Màxima Predom. Mitjana Ràfega màxima Total Dies de pluja
Mínima Mitjana Màxima Mínima Mitjana Màxima
Últimes dades diàries
18-01-2017 -6,7     -4,3     0,4 WNW 6,9 27,4 0,0  
17-01-2017 -5,1     0,2     5,2 WNW 26,7 83,7 0,0  
16-01-2017 1,9     4,7     7,6 WNW 34,0 80,5 1,5  
15-01-2017 0,6     2,7     5,4 WNW 32,8 77,2 0,0  
14-01-2017 -0,3     0,9     3,2 WNW 30,1 69,2 0,0  
13-01-2017 0,4     4,2     9,9 WNW 28,8 70,8 0,0  
12-01-2017 4,8     10,8     16,8 WNW 7,9 48,3 0,0  
11-01-2017 4,2     7,0     9,9 WNW 22,0 69,2 0,0  
10-01-2017 2,9     5,3     6,6 WNW 28,8 82,1 0,0  
09-01-2017 -0,2     4,3     9,7 WNW 5,6 27,4 0,0  
08-01-2017 -2,7     3,7     10,3 WNW 5,3 30,6 0,0  
07-01-2017 -1,8     2,9     10,9 WNW 1,4 14,5 0,0  
06-01-2017 -3,3     2,9     12,2 SW 1,1 12,9 0,0  
05-01-2017 2,6     7,2     11,4 WNW 17,2 51,5 0,0  
04-01-2017 6,5     8,5     11,7 WNW 20,1 61,2 0,0  
03-01-2017 4,3     8,8     12,4 WNW 8,4 35,4 0,0  
02-01-2017 -2,4     4,0     11,7 S 0,5 9,7 0,0  
01-01-2017 -1,7     3,2     10,9 SE 1,6 14,5 0,0  
31-12-2016 -0,7     3,7     9,5 SE 4,2 35,4 0,0  
30-12-2016 -0,7     4,7     13,2 ESE 0,6 12,9 0,0  
29-12-2016 0,1     6,6     18,0 NW 0,3 9,7 0,0  
28-12-2016 1,2     5,8     14,4 E 1,0 22,5 0,0  
27-12-2016 2,3     6,7     13,8 NE 0,5 9,7 0,0  
26-12-2016 4,0     8,6     16,9 SE 0,8 14,5 0,0  
25-12-2016 2,0     7,6     14,5 WSW 1,0 14,5 0,0  
24-12-2016 5,1     7,2     9,1 WNW 9,0 29,0 0,0  
23-12-2016 5,2     7,6     10,0 WNW 5,1 22,5 0,0  
22-12-2016 -0,3     5,2     10,3 WNW 3,7 24,1 0,0  
21-12-2016 1,4     4,5     9,0 WNW 12,6 43,5 0,0  
20-12-2016 2,4     4,2     7,3 WNW 18,3 53,1 0,0  
19-12-2016 0,9     2,1     3,2 WNW 13,5 35,4 3,6  
18-12-2016 2,7     3,6     4,7 WNW 3,5 24,1 1,3  
Dades del mes en curs (actualitzades fins l'últim dia disponible)
01/2017 -6,7 0,2 6,5 4,3 0,4 9,2 16,8   15,5 83,7 1,5  
Últimes dades mensuals
12/2016 -0,7 2,5 7,8 6,1 3,2 11,0 18,0 3,8 53,1 66,7 6
11/2016 -1,4 4,6 11,8 8,2 6,9 12,5 21,6 7,2 90,1 87,6 12
10/2016 3,5 9,3 13,4 13,8 12,0 19,3 25,4 3,4 41,8 32,8 6
09/2016 7,9 13,3 22,4 17,7 16,1 23,5 33,6 6,0 56,3 26,9 5
08/2016 7,9 14,4 19,9 20,8 22,2 27,6 31,4 4,5 57,9 14,7 4
07/2016 6,7 15,0 21,2 21,2 21,2 27,7 33,6 5,3 54,7 22,2 5
06/2016 7,2 12,4 17,8 18,0 16,2 23,9 29,8 6,5 57,9 102,7 9
05/2016 -0,2 7,8 12,9 12,8 9,6 18,2 25,7 8,8 61,2 27,2 7
04/2016 -0,6 4,6 9,7 9,2 8,0 14,1 19,6 8,7 62,8 44,9 10
03/2016 -3,4 2,8 9,1 6,3 3,7 10,5 21,6 12,1 75,6 23,9 10
02/2016 -7,8 2,0 10,3 6,3 3,4 11,2 16,7 13,3 111,0 20,2 9
01/2016 -1,1 3,6 10,6 7,4 3,4 11,9 17,8 9,1 72,4 8,9 8
10/2015 0,3 8,6 17,6 12,9 13,1 18,0 22,7 3,8 49,9 21,5 8
Dades de l'any en curs (actualitzades fins l'últim dia disponible)
2017 -6,7 0,2 6,5 4,3 0,4 9,2 16,8   15,5 83,7 1,5  
Últimes dades anuals